sensor_id;sensor_type;location;lat;lon;timestamp;P1;durP1;ratioP1;P2;durP2;ratioP2
10687;SDS011;5392;42.688;23.298;2022-07-29T00:02:25;8.60;;;7.82;;
10687;SDS011;5392;42.688;23.298;2022-07-29T00:04:52;8.20;;;7.70;;
10687;SDS011;5392;42.688;23.298;2022-07-29T00:07:19;7.80;;;7.25;;
10687;SDS011;5392;42.688;23.298;2022-07-29T00:09:46;8.55;;;8.05;;
10687;SDS011;5392;42.688;23.298;2022-07-29T00:12:18;8.52;;;7.90;;
10687;SDS011;5392;42.688;23.298;2022-07-29T00:14:51;8.38;;;7.68;;
10687;SDS011;5392;42.688;23.298;2022-07-29T00:17:19;7.53;;;7.20;;
10687;SDS011;5392;42.688;23.298;2022-07-29T00:19:45;8.73;;;8.15;;
10687;SDS011;5392;42.688;23.298;2022-07-29T00:22:12;8.13;;;7.50;;
10687;SDS011;5392;42.688;23.298;2022-07-29T00:24:39;8.88;;;8.18;;
10687;SDS011;5392;42.688;23.298;2022-07-29T00:27:05;9.20;;;8.60;;
10687;SDS011;5392;42.688;23.298;2022-07-29T00:29:32;8.48;;;7.90;;
10687;SDS011;5392;42.688;23.298;2022-07-29T00:32:00;8.18;;;7.68;;
10687;SDS011;5392;42.688;23.298;2022-07-29T00:34:28;8.85;;;8.23;;
10687;SDS011;5392;42.688;23.298;2022-07-29T00:37:13;9.00;;;8.27;;
10687;SDS011;5392;42.688;23.298;2022-07-29T00:39:40;7.47;;;7.07;;
10687;SDS011;5392;42.688;23.298;2022-07-29T00:42:07;9.23;;;8.68;;
10687;SDS011;5392;42.688;23.298;2022-07-29T00:44:37;10.50;;;9.73;;
10687;SDS011;5392;42.688;23.298;2022-07-29T00:47:05;12.63;;;11.65;;
10687;SDS011;5392;42.688;23.298;2022-07-29T00:49:33;13.55;;;12.65;;
10687;SDS011;5392;42.688;23.298;2022-07-29T00:52:01;13.68;;;12.57;;
10687;SDS011;5392;42.688;23.298;2022-07-29T00:54:29;12.10;;;11.30;;
10687;SDS011;5392;42.688;23.298;2022-07-29T00:56:59;14.70;;;13.38;;
10687;SDS011;5392;42.688;23.298;2022-07-29T00:59:26;14.10;;;12.77;;
10687;SDS011;5392;42.688;23.298;2022-07-29T01:02:00;13.60;;;12.60;;
10687;SDS011;5392;42.688;23.298;2022-07-29T01:04:28;14.18;;;12.85;;
10687;SDS011;5392;42.688;23.298;2022-07-29T01:06:57;14.02;;;12.75;;
10687;SDS011;5392;42.688;23.298;2022-07-29T01:09:25;14.52;;;13.27;;
10687;SDS011;5392;42.688;23.298;2022-07-29T01:12:16;14.55;;;13.18;;
10687;SDS011;5392;42.688;23.298;2022-07-29T01:14:46;14.85;;;13.73;;
10687;SDS011;5392;42.688;23.298;2022-07-29T01:37:43;15.45;;;13.75;;
10687;SDS011;5392;42.688;23.298;2022-07-29T01:40:26;15.25;;;13.98;;
10687;SDS011;5392;42.688;23.298;2022-07-29T01:42:57;16.05;;;14.45;;
10687;SDS011;5392;42.688;23.298;2022-07-29T01:50:53;14.73;;;13.32;;
10687;SDS011;5392;42.688;23.298;2022-07-29T01:53:32;14.93;;;13.68;;
10687;SDS011;5392;42.688;23.298;2022-07-29T01:56:05;14.32;;;13.10;;
10687;SDS011;5392;42.688;23.298;2022-07-29T01:58:35;14.75;;;13.45;;
10687;SDS011;5392;42.688;23.298;2022-07-29T02:01:05;15.35;;;14.00;;
10687;SDS011;5392;42.688;23.298;2022-07-29T02:03:34;14.98;;;13.68;;
10687;SDS011;5392;42.688;23.298;2022-07-29T02:06:04;15.82;;;14.38;;
10687;SDS011;5392;42.688;23.298;2022-07-29T02:08:33;13.88;;;12.77;;
10687;SDS011;5392;42.688;23.298;2022-07-29T02:11:02;16.27;;;14.75;;
10687;SDS011;5392;42.688;23.298;2022-07-29T02:13:31;15.65;;;14.20;;
10687;SDS011;5392;42.688;23.298;2022-07-29T02:16:00;14.77;;;13.48;;
10687;SDS011;5392;42.688;23.298;2022-07-29T02:18:32;15.13;;;13.68;;
10687;SDS011;5392;42.688;23.298;2022-07-29T02:21:02;15.27;;;13.90;;
10687;SDS011;5392;42.688;23.298;2022-07-29T02:23:30;15.35;;;13.85;;
10687;SDS011;5392;42.688;23.298;2022-07-29T02:26:16;15.05;;;13.85;;
10687;SDS011;5392;42.688;23.298;2022-07-29T02:28:46;15.48;;;14.02;;
10687;SDS011;5392;42.688;23.298;2022-07-29T02:31:14;16.08;;;13.68;;
10687;SDS011;5392;42.688;23.298;2022-07-29T02:33:43;14.73;;;13.02;;
10687;SDS011;5392;42.688;23.298;2022-07-29T02:36:13;15.20;;;13.77;;
10687;SDS011;5392;42.688;23.298;2022-07-29T02:38:42;14.75;;;13.25;;
10687;SDS011;5392;42.688;23.298;2022-07-29T02:41:17;15.63;;;14.32;;
10687;SDS011;5392;42.688;23.298;2022-07-29T02:43:50;15.05;;;13.80;;
10687;SDS011;5392;42.688;23.298;2022-07-29T02:46:25;15.25;;;14.02;;
10687;SDS011;5392;42.688;23.298;2022-07-29T02:48:58;14.80;;;13.40;;
10687;SDS011;5392;42.688;23.298;2022-07-29T02:51:33;14.25;;;13.05;;
10687;SDS011;5392;42.688;23.298;2022-07-29T02:54:10;13.90;;;12.68;;
10687;SDS011;5392;42.688;23.298;2022-07-29T02:56:42;13.13;;;12.02;;
10687;SDS011;5392;42.688;23.298;2022-07-29T02:59:11;12.48;;;11.25;;
10687;SDS011;5392;42.688;23.298;2022-07-29T03:01:41;12.60;;;11.63;;
10687;SDS011;5392;42.688;23.298;2022-07-29T03:04:10;14.43;;;13.00;;
10687;SDS011;5392;42.688;23.298;2022-07-29T03:06:40;15.70;;;14.30;;
10687;SDS011;5392;42.688;23.298;2022-07-29T03:09:08;14.75;;;13.30;;
10687;SDS011;5392;42.688;23.298;2022-07-29T03:11:39;16.08;;;14.55;;
10687;SDS011;5392;42.688;23.298;2022-07-29T03:14:18;16.38;;;14.80;;
10687;SDS011;5392;42.688;23.298;2022-07-29T03:16:46;18.35;;;16.85;;
10687;SDS011;5392;42.688;23.298;2022-07-29T03:19:14;18.83;;;17.00;;
10687;SDS011;5392;42.688;23.298;2022-07-29T03:21:41;20.40;;;18.60;;
10687;SDS011;5392;42.688;23.298;2022-07-29T03:24:08;20.92;;;18.88;;
10687;SDS011;5392;42.688;23.298;2022-07-29T03:26:36;20.27;;;18.40;;
10687;SDS011;5392;42.688;23.298;2022-07-29T03:29:03;19.23;;;17.67;;
10687;SDS011;5392;42.688;23.298;2022-07-29T03:31:30;18.63;;;16.25;;
10687;SDS011;5392;42.688;23.298;2022-07-29T03:33:58;17.90;;;16.00;;
10687;SDS011;5392;42.688;23.298;2022-07-29T03:36:25;14.15;;;12.13;;
10687;SDS011;5392;42.688;23.298;2022-07-29T03:38:52;15.40;;;12.77;;
10687;SDS011;5392;42.688;23.298;2022-07-29T03:41:19;15.15;;;13.60;;
10687;SDS011;5392;42.688;23.298;2022-07-29T03:43:49;21.05;;;14.68;;
10687;SDS011;5392;42.688;23.298;2022-07-29T03:46:17;15.82;;;14.32;;
10687;SDS011;5392;42.688;23.298;2022-07-29T03:48:48;15.98;;;14.48;;
10687;SDS011;5392;42.688;23.298;2022-07-29T03:51:19;16.30;;;14.68;;
10687;SDS011;5392;42.688;23.298;2022-07-29T03:54:00;15.50;;;14.13;;
10687;SDS011;5392;42.688;23.298;2022-07-29T03:56:37;16.08;;;14.55;;
10687;SDS011;5392;42.688;23.298;2022-07-29T03:59:06;14.75;;;13.55;;
10687;SDS011;5392;42.688;23.298;2022-07-29T04:01:33;13.68;;;12.32;;
10687;SDS011;5392;42.688;23.298;2022-07-29T04:04:01;14.15;;;10.43;;
10687;SDS011;5392;42.688;23.298;2022-07-29T04:06:37;12.10;;;10.90;;
10687;SDS011;5392;42.688;23.298;2022-07-29T04:09:07;14.30;;;10.43;;
10687;SDS011;5392;42.688;23.298;2022-07-29T04:11:35;12.90;;;10.40;;
10687;SDS011;5392;42.688;23.298;2022-07-29T04:14:24;11.55;;;10.30;;
10687;SDS011;5392;42.688;23.298;2022-07-29T04:16:51;9.70;;;8.98;;
10687;SDS011;5392;42.688;23.298;2022-07-29T04:19:19;10.98;;;10.07;;
10687;SDS011;5392;42.688;23.298;2022-07-29T04:21:45;10.77;;;9.68;;
10687;SDS011;5392;42.688;23.298;2022-07-29T04:24:12;13.35;;;9.88;;
10687;SDS011;5392;42.688;23.298;2022-07-29T04:26:39;12.38;;;10.02;;
10687;SDS011;5392;42.688;23.298;2022-07-29T04:29:06;11.20;;;10.10;;
10687;SDS011;5392;42.688;23.298;2022-07-29T04:31:33;12.73;;;9.90;;
10687;SDS011;5392;42.688;23.298;2022-07-29T04:34:00;10.32;;;8.90;;
10687;SDS011;5392;42.688;23.298;2022-07-29T04:36:26;8.77;;;7.82;;
10687;SDS011;5392;42.688;23.298;2022-07-29T04:38:55;8.93;;;8.20;;
10687;SDS011;5392;42.688;23.298;2022-07-29T04:41:22;16.48;;;9.35;;
10687;SDS011;5392;42.688;23.298;2022-07-29T04:43:58;9.02;;;8.15;;
10687;SDS011;5392;42.688;23.298;2022-07-29T04:46:27;10.10;;;8.38;;
10687;SDS011;5392;42.688;23.298;2022-07-29T04:48:54;8.38;;;7.82;;
10687;SDS011;5392;42.688;23.298;2022-07-29T04:51:20;8.55;;;7.95;;
10687;SDS011;5392;42.688;23.298;2022-07-29T04:53:47;9.23;;;8.32;;
10687;SDS011;5392;42.688;23.298;2022-07-29T04:56:14;12.50;;;8.32;;
10687;SDS011;5392;42.688;23.298;2022-07-29T04:58:41;8.00;;;7.25;;
10687;SDS011;5392;42.688;23.298;2022-07-29T05:01:08;8.02;;;7.30;;
10687;SDS011;5392;42.688;23.298;2022-07-29T05:03:34;12.43;;;7.75;;
10687;SDS011;5392;42.688;23.298;2022-07-29T05:06:01;7.50;;;6.85;;
10687;SDS011;5392;42.688;23.298;2022-07-29T05:08:28;8.70;;;7.80;;
10687;SDS011;5392;42.688;23.298;2022-07-29T05:10:54;7.18;;;6.75;;
10687;SDS011;5392;42.688;23.298;2022-07-29T05:13:21;6.55;;;6.10;;
10687;SDS011;5392;42.688;23.298;2022-07-29T05:15:48;6.45;;;6.13;;
10687;SDS011;5392;42.688;23.298;2022-07-29T05:18:15;7.03;;;6.53;;
10687;SDS011;5392;42.688;23.298;2022-07-29T05:20:41;8.30;;;7.60;;
10687;SDS011;5392;42.688;23.298;2022-07-29T05:23:08;8.20;;;7.55;;
10687;SDS011;5392;42.688;23.298;2022-07-29T05:25:35;7.25;;;5.88;;
10687;SDS011;5392;42.688;23.298;2022-07-29T05:28:10;6.40;;;5.90;;
10687;SDS011;5392;42.688;23.298;2022-07-29T05:30:37;6.18;;;5.68;;
10687;SDS011;5392;42.688;23.298;2022-07-29T05:33:04;5.80;;;4.30;;
10687;SDS011;5392;42.688;23.298;2022-07-29T05:35:31;4.13;;;3.65;;
10687;SDS011;5392;42.688;23.298;2022-07-29T05:37:58;4.85;;;3.53;;
10687;SDS011;5392;42.688;23.298;2022-07-29T05:40:24;3.47;;;3.30;;
10687;SDS011;5392;42.688;23.298;2022-07-29T05:42:51;4.10;;;3.90;;
10687;SDS011;5392;42.688;23.298;2022-07-29T05:45:18;6.03;;;4.03;;
10687;SDS011;5392;42.688;23.298;2022-07-29T05:47:45;4.18;;;3.80;;
10687;SDS011;5392;42.688;23.298;2022-07-29T05:50:11;4.53;;;4.22;;
10687;SDS011;5392;42.688;23.298;2022-07-29T05:52:38;3.40;;;3.20;;
10687;SDS011;5392;42.688;23.298;2022-07-29T05:55:05;4.03;;;3.72;;
10687;SDS011;5392;42.688;23.298;2022-07-29T05:57:32;5.78;;;5.13;;
10687;SDS011;5392;42.688;23.298;2022-07-29T05:59:59;9.15;;;4.25;;
10687;SDS011;5392;42.688;23.298;2022-07-29T06:02:26;3.05;;;2.67;;
10687;SDS011;5392;42.688;23.298;2022-07-29T06:04:53;3.28;;;2.50;;
10687;SDS011;5392;42.688;23.298;2022-07-29T06:07:20;2.22;;;2.13;;
10687;SDS011;5392;42.688;23.298;2022-07-29T06:09:46;2.00;;;1.90;;
10687;SDS011;5392;42.688;23.298;2022-07-29T06:12:13;3.70;;;1.85;;
10687;SDS011;5392;42.688;23.298;2022-07-29T06:14:40;1.92;;;1.92;;
10687;SDS011;5392;42.688;23.298;2022-07-29T06:17:07;1.98;;;1.88;;
10687;SDS011;5392;42.688;23.298;2022-07-29T06:19:34;2.00;;;1.80;;
10687;SDS011;5392;42.688;23.298;2022-07-29T06:22:03;3.50;;;2.00;;
10687;SDS011;5392;42.688;23.298;2022-07-29T06:24:29;3.83;;;1.75;;
10687;SDS011;5392;42.688;23.298;2022-07-29T06:26:57;1.98;;;1.80;;
10687;SDS011;5392;42.688;23.298;2022-07-29T06:29:24;2.97;;;1.83;;
10687;SDS011;5392;42.688;23.298;2022-07-29T06:31:50;1.75;;;1.65;;
10687;SDS011;5392;42.688;23.298;2022-07-29T06:34:17;1.67;;;1.58;;
10687;SDS011;5392;42.688;23.298;2022-07-29T06:36:45;1.80;;;1.70;;
10687;SDS011;5392;42.688;23.298;2022-07-29T06:39:13;4.82;;;1.88;;
10687;SDS011;5392;42.688;23.298;2022-07-29T06:41:40;2.17;;;1.88;;
10687;SDS011;5392;42.688;23.298;2022-07-29T06:44:07;2.28;;;1.65;;
10687;SDS011;5392;42.688;23.298;2022-07-29T06:46:34;3.22;;;2.13;;
10687;SDS011;5392;42.688;23.298;2022-07-29T06:49:01;2.30;;;2.20;;
10687;SDS011;5392;42.688;23.298;2022-07-29T06:51:28;3.58;;;1.60;;
10687;SDS011;5392;42.688;23.298;2022-07-29T06:53:55;2.55;;;1.58;;
10687;SDS011;5392;42.688;23.298;2022-07-29T06:56:43;1.33;;;1.25;;
10687;SDS011;5392;42.688;23.298;2022-07-29T06:59:11;1.48;;;1.40;;
10687;SDS011;5392;42.688;23.298;2022-07-29T07:01:39;1.95;;;1.63;;
10687;SDS011;5392;42.688;23.298;2022-07-29T07:04:07;2.45;;;1.50;;
10687;SDS011;5392;42.688;23.298;2022-07-29T07:06:36;1.65;;;1.55;;
10687;SDS011;5392;42.688;23.298;2022-07-29T07:09:04;2.75;;;2.10;;
10687;SDS011;5392;42.688;23.298;2022-07-29T07:11:31;2.25;;;1.83;;
10687;SDS011;5392;42.688;23.298;2022-07-29T07:13:58;1.88;;;1.77;;
10687;SDS011;5392;42.688;23.298;2022-07-29T07:16:29;4.28;;;2.25;;
10687;SDS011;5392;42.688;23.298;2022-07-29T07:18:57;3.17;;;1.85;;
10687;SDS011;5392;42.688;23.298;2022-07-29T07:21:24;3.75;;;1.83;;
10687;SDS011;5392;42.688;23.298;2022-07-29T07:23:50;3.42;;;1.88;;
10687;SDS011;5392;42.688;23.298;2022-07-29T07:26:17;2.88;;;1.55;;
10687;SDS011;5392;42.688;23.298;2022-07-29T07:28:43;1.45;;;1.35;;
10687;SDS011;5392;42.688;23.298;2022-07-29T07:31:10;2.35;;;1.70;;
10687;SDS011;5392;42.688;23.298;2022-07-29T07:33:38;2.45;;;2.08;;
10687;SDS011;5392;42.688;23.298;2022-07-29T07:36:04;3.22;;;2.15;;
10687;SDS011;5392;42.688;23.298;2022-07-29T07:38:31;2.53;;;1.60;;
10687;SDS011;5392;42.688;23.298;2022-07-29T07:40:58;2.17;;;2.03;;
10687;SDS011;5392;42.688;23.298;2022-07-29T07:43:25;1.40;;;1.40;;
10687;SDS011;5392;42.688;23.298;2022-07-29T07:45:52;1.38;;;1.38;;
10687;SDS011;5392;42.688;23.298;2022-07-29T07:48:19;3.03;;;1.00;;
10687;SDS011;5392;42.688;23.298;2022-07-29T07:50:45;3.15;;;0.88;;
10687;SDS011;5392;42.688;23.298;2022-07-29T07:53:12;1.00;;;1.00;;
10687;SDS011;5392;42.688;23.298;2022-07-29T07:55:41;1.02;;;0.90;;
10687;SDS011;5392;42.688;23.298;2022-07-29T07:58:28;1.02;;;0.88;;
10687;SDS011;5392;42.688;23.298;2022-07-29T08:00:54;1.80;;;1.02;;
10687;SDS011;5392;42.688;23.298;2022-07-29T08:03:24;0.90;;;0.80;;
10687;SDS011;5392;42.688;23.298;2022-07-29T08:05:51;2.38;;;1.02;;
10687;SDS011;5392;42.688;23.298;2022-07-29T08:08:18;0.90;;;0.85;;
10687;SDS011;5392;42.688;23.298;2022-07-29T08:10:45;2.30;;;1.20;;
10687;SDS011;5392;42.688;23.298;2022-07-29T08:13:30;0.90;;;0.90;;
10687;SDS011;5392;42.688;23.298;2022-07-29T08:15:58;2.95;;;1.02;;
10687;SDS011;5392;42.688;23.298;2022-07-29T08:18:27;3.40;;;1.20;;
10687;SDS011;5392;42.688;23.298;2022-07-29T08:20:55;3.00;;;0.80;;
10687;SDS011;5392;42.688;23.298;2022-07-29T08:23:22;1.20;;;1.10;;
10687;SDS011;5392;42.688;23.298;2022-07-29T08:25:50;1.08;;;1.05;;
10687;SDS011;5392;42.688;23.298;2022-07-29T08:28:34;2.55;;;1.08;;
10687;SDS011;5392;42.688;23.298;2022-07-29T08:31:01;2.70;;;0.90;;
10687;SDS011;5392;42.688;23.298;2022-07-29T08:33:28;1.27;;;0.90;;
10687;SDS011;5392;42.688;23.298;2022-07-29T08:35:54;1.25;;;0.80;;
10687;SDS011;5392;42.688;23.298;2022-07-29T08:38:21;0.70;;;0.70;;
10687;SDS011;5392;42.688;23.298;2022-07-29T08:40:48;2.20;;;0.88;;
10687;SDS011;5392;42.688;23.298;2022-07-29T08:43:15;0.80;;;0.80;;
10687;SDS011;5392;42.688;23.298;2022-07-29T08:45:45;0.80;;;0.80;;
10687;SDS011;5392;42.688;23.298;2022-07-29T08:48:14;0.80;;;0.80;;
10687;SDS011;5392;42.688;23.298;2022-07-29T08:50:43;2.15;;;0.90;;
10687;SDS011;5392;42.688;23.298;2022-07-29T08:53:13;1.70;;;0.90;;
10687;SDS011;5392;42.688;23.298;2022-07-29T08:55:45;3.80;;;0.93;;
10687;SDS011;5392;42.688;23.298;2022-07-29T08:58:14;1.95;;;0.73;;
10687;SDS011;5392;42.688;23.298;2022-07-29T09:00:50;1.15;;;0.70;;
10687;SDS011;5392;42.688;23.298;2022-07-29T09:03:25;0.70;;;0.70;;
10687;SDS011;5392;42.688;23.298;2022-07-29T09:05:57;1.35;;;0.60;;
10687;SDS011;5392;42.688;23.298;2022-07-29T09:08:25;1.75;;;0.60;;
10687;SDS011;5392;42.688;23.298;2022-07-29T09:10:52;0.60;;;0.60;;
10687;SDS011;5392;42.688;23.298;2022-07-29T09:13:19;0.60;;;0.55;;
10687;SDS011;5392;42.688;23.298;2022-07-29T09:15:46;1.25;;;0.70;;
10687;SDS011;5392;42.688;23.298;2022-07-29T09:18:31;1.42;;;0.70;;
10687;SDS011;5392;42.688;23.298;2022-07-29T09:21:07;1.13;;;0.70;;
10687;SDS011;5392;42.688;23.298;2022-07-29T09:24:12;0.98;;;0.85;;
10687;SDS011;5392;42.688;23.298;2022-07-29T09:26:43;0.50;;;0.50;;
10687;SDS011;5392;42.688;23.298;2022-07-29T09:29:15;0.63;;;0.63;;
10687;SDS011;5392;42.688;23.298;2022-07-29T09:31:46;1.10;;;0.60;;
10687;SDS011;5392;42.688;23.298;2022-07-29T09:34:16;1.48;;;0.77;;
10687;SDS011;5392;42.688;23.298;2022-07-29T09:36:49;0.70;;;0.70;;
10687;SDS011;5392;42.688;23.298;2022-07-29T09:39:27;1.05;;;0.80;;
10687;SDS011;5392;42.688;23.298;2022-07-29T09:41:57;0.70;;;0.70;;
10687;SDS011;5392;42.688;23.298;2022-07-29T09:44:26;1.20;;;1.10;;
10687;SDS011;5392;42.688;23.298;2022-07-29T09:46:59;0.95;;;0.70;;
10687;SDS011;5392;42.688;23.298;2022-07-29T09:50:16;2.05;;;0.80;;
10687;SDS011;5392;42.688;23.298;2022-07-29T09:52:26;0.82;;;0.82;;
10687;SDS011;5392;42.688;23.298;2022-07-29T09:55:15;2.00;;;1.13;;
10687;SDS011;5392;42.688;23.298;2022-07-29T09:57:45;3.40;;;1.02;;
10687;SDS011;5392;42.688;23.298;2022-07-29T10:00:17;1.63;;;0.90;;
10687;SDS011;5392;42.688;23.298;2022-07-29T10:02:46;4.45;;;1.10;;
10687;SDS011;5392;42.688;23.298;2022-07-29T10:05:23;2.92;;;0.82;;
10687;SDS011;5392;42.688;23.298;2022-07-29T10:07:55;1.15;;;0.85;;
10687;SDS011;5392;42.688;23.298;2022-07-29T10:12:52;1.15;;;1.05;;
10687;SDS011;5392;42.688;23.298;2022-07-29T10:15:21;1.65;;;1.50;;
10687;SDS011;5392;42.688;23.298;2022-07-29T10:17:50;1.20;;;1.10;;
10687;SDS011;5392;42.688;23.298;2022-07-29T10:20:19;4.68;;;1.52;;
10687;SDS011;5392;42.688;23.298;2022-07-29T10:22:47;1.65;;;1.05;;
10687;SDS011;5392;42.688;23.298;2022-07-29T10:25:19;3.15;;;1.27;;
10687;SDS011;5392;42.688;23.298;2022-07-29T10:27:47;1.50;;;1.40;;
10687;SDS011;5392;42.688;23.298;2022-07-29T10:30:15;0.80;;;0.80;;
10687;SDS011;5392;42.688;23.298;2022-07-29T10:44:21;1.90;;;1.08;;
10687;SDS011;5392;42.688;23.298;2022-07-29T10:46:50;1.65;;;0.90;;
10687;SDS011;5392;42.688;23.298;2022-07-29T10:59:39;3.95;;;0.70;;
10687;SDS011;5392;42.688;23.298;2022-07-29T11:05:15;1.23;;;0.60;;
10687;SDS011;5392;42.688;23.298;2022-07-29T11:10:46;2.30;;;0.80;;
10687;SDS011;5392;42.688;23.298;2022-07-29T11:16:09;1.75;;;1.27;;
10687;SDS011;5392;42.688;23.298;2022-07-29T11:18:36;1.40;;;0.90;;
10687;SDS011;5392;42.688;23.298;2022-07-29T11:21:42;0.73;;;0.73;;
10687;SDS011;5392;42.688;23.298;2022-07-29T11:24:33;1.50;;;0.90;;
10687;SDS011;5392;42.688;23.298;2022-07-29T11:27:11;0.70;;;0.70;;
10687;SDS011;5392;42.688;23.298;2022-07-29T11:29:39;1.13;;;0.70;;
10687;SDS011;5392;42.688;23.298;2022-07-29T11:32:15;0.88;;;0.88;;
10687;SDS011;5392;42.688;23.298;2022-07-29T11:35:14;1.45;;;1.17;;
10687;SDS011;5392;42.688;23.298;2022-07-29T11:43:58;0.80;;;0.80;;
10687;SDS011;5392;42.688;23.298;2022-07-29T11:46:47;1.85;;;0.95;;
10687;SDS011;5392;42.688;23.298;2022-07-29T11:49:33;1.00;;;1.00;;
10687;SDS011;5392;42.688;23.298;2022-07-29T11:52:02;1.83;;;1.33;;
10687;SDS011;5392;42.688;23.298;2022-07-29T11:54:33;1.60;;;1.60;;
10687;SDS011;5392;42.688;23.298;2022-07-29T11:57:20;2.05;;;1.77;;
10687;SDS011;5392;42.688;23.298;2022-07-29T11:59:47;1.27;;;1.27;;
10687;SDS011;5392;42.688;23.298;2022-07-29T12:02:16;3.03;;;1.20;;
10687;SDS011;5392;42.688;23.298;2022-07-29T12:05:03;1.20;;;1.20;;
10687;SDS011;5392;42.688;23.298;2022-07-29T12:07:36;1.48;;;1.20;;
10687;SDS011;5392;42.688;23.298;2022-07-29T12:10:06;0.90;;;0.90;;
10687;SDS011;5392;42.688;23.298;2022-07-29T12:12:44;1.33;;;1.23;;
10687;SDS011;5392;42.688;23.298;2022-07-29T12:15:18;2.13;;;2.03;;
10687;SDS011;5392;42.688;23.298;2022-07-29T12:18:13;3.40;;;1.40;;
10687;SDS011;5392;42.688;23.298;2022-07-29T12:20:44;1.30;;;1.23;;
10687;SDS011;5392;42.688;23.298;2022-07-29T12:23:11;3.63;;;1.20;;
10687;SDS011;5392;42.688;23.298;2022-07-29T12:25:42;1.50;;;0.98;;
10687;SDS011;5392;42.688;23.298;2022-07-29T12:28:15;2.58;;;1.10;;
10687;SDS011;5392;42.688;23.298;2022-07-29T12:30:52;3.58;;;1.35;;
10687;SDS011;5392;42.688;23.298;2022-07-29T12:33:21;1.15;;;1.15;;
10687;SDS011;5392;42.688;23.298;2022-07-29T12:36:07;2.47;;;1.38;;
10687;SDS011;5392;42.688;23.298;2022-07-29T12:38:43;1.77;;;1.77;;
10687;SDS011;5392;42.688;23.298;2022-07-29T12:41:10;1.75;;;1.70;;
10687;SDS011;5392;42.688;23.298;2022-07-29T12:43:47;2.17;;;2.17;;
10687;SDS011;5392;42.688;23.298;2022-07-29T12:46:19;1.73;;;1.63;;
10687;SDS011;5392;42.688;23.298;2022-07-29T12:48:49;2.70;;;2.60;;
10687;SDS011;5392;42.688;23.298;2022-07-29T12:51:17;2.67;;;2.10;;
10687;SDS011;5392;42.688;23.298;2022-07-29T12:54:01;2.17;;;1.90;;
10687;SDS011;5392;42.688;23.298;2022-07-29T12:56:30;1.77;;;1.65;;
10687;SDS011;5392;42.688;23.298;2022-07-29T12:59:13;2.28;;;2.08;;
10687;SDS011;5392;42.688;23.298;2022-07-29T13:01:44;2.15;;;1.60;;
10687;SDS011;5392;42.688;23.298;2022-07-29T13:04:27;2.00;;;1.58;;
10687;SDS011;5392;42.688;23.298;2022-07-29T13:07:04;2.42;;;2.33;;
10687;SDS011;5392;42.688;23.298;2022-07-29T13:09:42;3.42;;;2.30;;
10687;SDS011;5392;42.688;23.298;2022-07-29T13:12:11;2.13;;;1.80;;
10687;SDS011;5392;42.688;23.298;2022-07-29T13:14:48;1.73;;;1.63;;
10687;SDS011;5392;42.688;23.298;2022-07-29T13:17:17;1.88;;;1.80;;
10687;SDS011;5392;42.688;23.298;2022-07-29T13:20:08;1.90;;;1.90;;
10687;SDS011;5392;42.688;23.298;2022-07-29T13:22:38;2.13;;;2.03;;
10687;SDS011;5392;42.688;23.298;2022-07-29T13:25:06;2.30;;;1.67;;
10687;SDS011;5392;42.688;23.298;2022-07-29T13:27:34;7.38;;;2.42;;
10687;SDS011;5392;42.688;23.298;2022-07-29T13:30:04;4.43;;;2.17;;
10687;SDS011;5392;42.688;23.298;2022-07-29T13:32:34;1.52;;;1.42;;
10687;SDS011;5392;42.688;23.298;2022-07-29T13:35:03;1.75;;;1.73;;
10687;SDS011;5392;42.688;23.298;2022-07-29T13:37:32;2.28;;;2.15;;
10687;SDS011;5392;42.688;23.298;2022-07-29T13:40:02;1.92;;;1.83;;
10687;SDS011;5392;42.688;23.298;2022-07-29T13:42:29;2.38;;;2.13;;
10687;SDS011;5392;42.688;23.298;2022-07-29T13:44:57;1.67;;;1.60;;
10687;SDS011;5392;42.688;23.298;2022-07-29T13:47:25;3.47;;;2.97;;
10687;SDS011;5392;42.688;23.298;2022-07-29T13:49:58;2.45;;;1.80;;
10687;SDS011;5392;42.688;23.298;2022-07-29T13:52:28;1.80;;;1.70;;
10687;SDS011;5392;42.688;23.298;2022-07-29T13:54:55;2.03;;;2.00;;
10687;SDS011;5392;42.688;23.298;2022-07-29T13:57:22;1.92;;;1.83;;
10687;SDS011;5392;42.688;23.298;2022-07-29T13:59:48;2.17;;;2.08;;
10687;SDS011;5392;42.688;23.298;2022-07-29T14:02:20;1.90;;;1.90;;
10687;SDS011;5392;42.688;23.298;2022-07-29T14:04:51;6.07;;;1.90;;
10687;SDS011;5392;42.688;23.298;2022-07-29T14:07:21;1.90;;;1.85;;
10687;SDS011;5392;42.688;23.298;2022-07-29T14:09:48;2.10;;;1.95;;
10687;SDS011;5392;42.688;23.298;2022-07-29T14:12:14;3.15;;;1.92;;
10687;SDS011;5392;42.688;23.298;2022-07-29T14:14:41;2.35;;;2.17;;
10687;SDS011;5392;42.688;23.298;2022-07-29T14:17:08;2.50;;;2.10;;
10687;SDS011;5392;42.688;23.298;2022-07-29T14:19:35;1.80;;;1.70;;
10687;SDS011;5392;42.688;23.298;2022-07-29T14:22:04;3.08;;;1.88;;
10687;SDS011;5392;42.688;23.298;2022-07-29T14:24:34;2.20;;;2.13;;
10687;SDS011;5392;42.688;23.298;2022-07-29T14:27:03;2.25;;;1.80;;
10687;SDS011;5392;42.688;23.298;2022-07-29T14:29:31;3.25;;;2.00;;
10687;SDS011;5392;42.688;23.298;2022-07-29T14:32:04;2.30;;;2.20;;
10687;SDS011;5392;42.688;23.298;2022-07-29T14:34:33;2.17;;;2.00;;
10687;SDS011;5392;42.688;23.298;2022-07-29T14:37:00;2.20;;;2.10;;
10687;SDS011;5392;42.688;23.298;2022-07-29T14:39:29;1.77;;;1.77;;
10687;SDS011;5392;42.688;23.298;2022-07-29T14:41:57;1.80;;;1.67;;
10687;SDS011;5392;42.688;23.298;2022-07-29T14:44:24;1.63;;;1.60;;
10687;SDS011;5392;42.688;23.298;2022-07-29T14:47:00;5.40;;;1.55;;
10687;SDS011;5392;42.688;23.298;2022-07-29T14:49:33;1.95;;;1.75;;
10687;SDS011;5392;42.688;23.298;2022-07-29T14:52:00;1.52;;;1.52;;
10687;SDS011;5392;42.688;23.298;2022-07-29T14:54:27;1.85;;;1.70;;
10687;SDS011;5392;42.688;23.298;2022-07-29T14:56:54;3.03;;;1.70;;
10687;SDS011;5392;42.688;23.298;2022-07-29T14:59:24;1.60;;;1.58;;
10687;SDS011;5392;42.688;23.298;2022-07-29T15:01:51;3.20;;;2.00;;
10687;SDS011;5392;42.688;23.298;2022-07-29T15:04:18;1.92;;;1.83;;
10687;SDS011;5392;42.688;23.298;2022-07-29T15:06:45;2.80;;;1.50;;
10687;SDS011;5392;42.688;23.298;2022-07-29T15:09:12;1.92;;;1.83;;
10687;SDS011;5392;42.688;23.298;2022-07-29T15:11:38;2.03;;;1.73;;
10687;SDS011;5392;42.688;23.298;2022-07-29T15:14:05;1.92;;;1.90;;
10687;SDS011;5392;42.688;23.298;2022-07-29T15:16:32;2.45;;;2.35;;
10687;SDS011;5392;42.688;23.298;2022-07-29T15:19:03;1.95;;;1.92;;
10687;SDS011;5392;42.688;23.298;2022-07-29T15:21:30;2.88;;;1.85;;
10687;SDS011;5392;42.688;23.298;2022-07-29T15:23:57;2.10;;;1.88;;
10687;SDS011;5392;42.688;23.298;2022-07-29T15:26:24;3.92;;;2.15;;
10687;SDS011;5392;42.688;23.298;2022-07-29T15:28:51;2.72;;;2.63;;
10687;SDS011;5392;42.688;23.298;2022-07-29T15:31:17;2.35;;;2.10;;
10687;SDS011;5392;42.688;23.298;2022-07-29T15:33:47;3.60;;;2.42;;
10687;SDS011;5392;42.688;23.298;2022-07-29T15:36:13;2.25;;;2.15;;
10687;SDS011;5392;42.688;23.298;2022-07-29T15:39:00;2.22;;;2.13;;
10687;SDS011;5392;42.688;23.298;2022-07-29T15:41:27;1.90;;;1.80;;
10687;SDS011;5392;42.688;23.298;2022-07-29T15:43:54;2.58;;;2.38;;
10687;SDS011;5392;42.688;23.298;2022-07-29T15:46:20;2.60;;;2.40;;
10687;SDS011;5392;42.688;23.298;2022-07-29T15:49:06;2.00;;;2.00;;
10687;SDS011;5392;42.688;23.298;2022-07-29T15:51:33;1.83;;;1.73;;
10687;SDS011;5392;42.688;23.298;2022-07-29T15:54:01;1.98;;;1.88;;
10687;SDS011;5392;42.688;23.298;2022-07-29T15:56:29;2.30;;;2.20;;
10687;SDS011;5392;42.688;23.298;2022-07-29T15:58:55;2.47;;;2.38;;
10687;SDS011;5392;42.688;23.298;2022-07-29T16:01:22;2.55;;;2.22;;
10687;SDS011;5392;42.688;23.298;2022-07-29T16:03:50;2.28;;;2.03;;
10687;SDS011;5392;42.688;23.298;2022-07-29T16:06:17;2.05;;;1.98;;